Back to Top

Language: 

My Weather Underground Personal Weather Station Historical Data with Graphs...

Delerius Weather Station Historical Data
Daily Summary for May 12, 2017 Units:  English    Metric   Both
« Previous Day
Next Day »
Daily Weekly Monthly Yearly Custom
  High: Low: Average:
Temperature: 61.0 °F 46.9 °F 52.8 °F
Dew Point: 54.8 °F 43.5 °F 49 °F
Humidity: 91 % 76 % 87 %
Wind Speed: 10.0 mph 0.0 mph 2.6 mph
Wind Gust: 18.0 mph - -
Wind:- - SE
Pressure: 29.46 in 29.40 in -
Precipitation: 0.01 in    
Historical Graphs
 
 
Tabular Data for May 12, 2017
Time Temperature Dew Point Pressure Wind Wind Speed Wind Gust Humidity Rainfall Rate (Hourly) solar Conditions
00:01 48.9 °F 44.0 °F 29.44 in NE 2.0 mph 7.0 mph 83 % 0.00 in 0 W/m2
00:06 48.9 °F 44.3 °F 29.44 in NE 2.0 mph 5.0 mph 84 % 0.00 in 0 W/m2
00:11 48.9 °F 44.3 °F 29.44 in NE 2.0 mph 5.0 mph 84 % 0.00 in 0 W/m2
00:16 48.9 °F 44.3 °F 29.44 in NE 1.0 mph 5.0 mph 84 % 0.00 in 0 W/m2
00:21 48.9 °F 44.3 °F 29.44 in NE 1.0 mph 4.0 mph 84 % 0.00 in 0 W/m2
00:26 48.7 °F 44.1 °F 29.44 in NNE 3.0 mph 7.0 mph 84 % 0.00 in 0 W/m2
00:31 48.7 °F 44.1 °F 29.44 in NNE 4.0 mph 7.0 mph 84 % 0.00 in 0 W/m2
00:36 48.9 °F 44.3 °F 29.44 in NNE 3.0 mph 7.0 mph 84 % 0.00 in 0 W/m2
00:41 48.7 °F 44.1 °F 29.44 in NNE 4.0 mph 8.0 mph 84 % 0.00 in 0 W/m2
00:46 48.7 °F 44.1 °F 29.44 in NNE 4.0 mph 8.0 mph 84 % 0.00 in 0 W/m2
00:51 48.7 °F 44.1 °F 29.43 in NNE 4.0 mph 7.0 mph 84 % 0.00 in 0 W/m2
00:56 48.7 °F 44.1 °F 29.43 in NNE 4.0 mph 8.0 mph 84 % 0.00 in 0 W/m2
01:01 48.6 °F 43.6 °F 29.44 in NNE 4.0 mph 8.0 mph 83 % 0.00 in 0 W/m2
01:06 48.6 °F 43.6 °F 29.43 in NNE 4.0 mph 8.0 mph 83 % 0.00 in 0 W/m2
01:11 48.6 °F 43.6 °F 29.43 in NNE 3.0 mph 7.0 mph 83 % 0.00 in 0 W/m2
01:16 48.4 °F 43.5 °F 29.43 in NNE 3.0 mph 7.0 mph 83 % 0.00 in 0 W/m2
01:21 48.4 °F 43.8 °F 29.43 in NNE 3.0 mph 7.0 mph 84 % 0.00 in 0 W/m2
01:26 48.4 °F 43.8 °F 29.43 in NE 3.0 mph 7.0 mph 84 % 0.00 in 0 W/m2
01:31 48.4 °F 44.1 °F 29.43 in NNE 4.0 mph 9.0 mph 85 % 0.00 in 0 W/m2
01:36 48.2 °F 43.9 °F 29.43 in NNE 6.0 mph 9.0 mph 85 % 0.00 in 0 W/m2
01:41 48.2 °F 44.2 °F 29.42 in NNE 5.0 mph 9.0 mph 86 % 0.00 in 0 W/m2
01:46 48.2 °F 44.2 °F 29.43 in NNE 3.0 mph 9.0 mph 86 % 0.00 in 0 W/m2
01:51 48.2 °F 44.5 °F 29.43 in NNE 3.0 mph 7.0 mph 87 % 0.00 in 0 W/m2
01:56 48.0 °F 44.3 °F 29.43 in NNE 3.0 mph 7.0 mph 87 % 0.00 in 0 W/m2
02:01 48.0 °F 44.3 °F 29.43 in NNE 2.0 mph 7.0 mph 87 % 0.00 in 0 W/m2
02:06 48.0 °F 44.6 °F 29.42 in NNE 3.0 mph 8.0 mph 88 % 0.00 in 0 W/m2
02:11 48.0 °F 44.6 °F 29.42 in NNE 4.0 mph 8.0 mph 88 % 0.00 in 0 W/m2
02:16 47.8 °F 44.5 °F 29.42 in NNE 4.0 mph 9.0 mph 88 % 0.00 in 0 W/m2
02:21 47.8 °F 44.5 °F 29.42 in NNE 3.0 mph 9.0 mph 88 % 0.00 in 0 W/m2
02:26 47.7 °F 44.6 °F 29.42 in NNE 2.0 mph 6.0 mph 89 % 0.00 in 0 W/m2
02:31 47.7 °F 44.6 °F 29.42 in North 2.0 mph 6.0 mph 89 % 0.00 in 0 W/m2
02:36 47.7 °F 44.6 °F 29.42 in NNE 2.0 mph 6.0 mph 89 % 0.00 in 0 W/m2
02:41 47.7 °F 44.6 °F 29.42 in NNE 3.0 mph 6.0 mph 89 % 0.00 in 0 W/m2
02:46 47.7 °F 44.9 °F 29.42 in NNE 3.0 mph 8.0 mph 90 % 0.00 in 0 W/m2
02:51 47.7 °F 44.9 °F 29.42 in NNE 3.0 mph 8.0 mph 90 % 0.00 in 0 W/m2
02:56 47.7 °F 44.9 °F 29.42 in NE 3.0 mph 6.0 mph 90 % 0.00 in 0 W/m2
03:01 47.7 °F 44.9 °F 29.42 in NNE 3.0 mph 8.0 mph 90 % 0.00 in 0 W/m2
03:06 47.7 °F 44.9 °F 29.42 in NNE 4.0 mph 8.0 mph 90 % 0.00 in 0 W/m2
03:11 47.5 °F 44.7 °F 29.42 in NNE 5.0 mph 8.0 mph 90 % 0.00 in 0 W/m2
03:16 47.5 °F 44.7 °F 29.42 in NNE 3.0 mph 8.0 mph 90 % 0.00 in 0 W/m2
03:21 47.5 °F 44.7 °F 29.42 in North 3.0 mph 7.0 mph 90 % 0.00 in 0 W/m2
03:26 47.5 °F 44.7 °F 29.41 in North 4.0 mph 7.0 mph 90 % 0.00 in 0 W/m2
03:31 47.5 °F 44.7 °F 29.41 in North 3.0 mph 7.0 mph 90 % 0.00 in 0 W/m2
03:36 47.5 °F 44.7 °F 29.41 in North 3.0 mph 7.0 mph 90 % 0.00 in 0 W/m2
03:41 47.5 °F 44.7 °F 29.41 in North 4.0 mph 7.0 mph 90 % 0.00 in 0 W/m2
03:47 47.5 °F 44.4 °F 29.41 in North 4.0 mph 9.0 mph 89 % 0.00 in 0 W/m2
03:52 47.3 °F 44.2 °F 29.41 in North 4.0 mph 9.0 mph 89 % 0.00 in 0 W/m2
03:57 47.3 °F 44.2 °F 29.41 in North 4.0 mph 8.0 mph 89 % 0.00 in 0 W/m2
04:02 47.3 °F 44.2 °F 29.41 in North 3.0 mph 8.0 mph 89 % 0.00 in 0 W/m2
04:07 47.1 °F 44.0 °F 29.41 in NNW 2.0 mph 7.0 mph 89 % 0.00 in 0 W/m2
04:12 47.1 °F 44.0 °F 29.41 in North 2.0 mph 7.0 mph 89 % 0.00 in 0 W/m2
04:17 47.1 °F 44.0 °F 29.41 in North 2.0 mph 7.0 mph 89 % 0.00 in 0 W/m2
04:22 47.1 °F 44.0 °F 29.41 in North 2.0 mph 9.0 mph 89 % 0.00 in 0 W/m2
04:23 47.1 °F 44.3 °F 29.41 in North 3.0 mph 9.0 mph 90 % 0.00 in 0 W/m2
04:28 46.9 °F 44.2 °F 29.41 in North 3.0 mph 9.0 mph 90 % 0.00 in 0 W/m2
04:33 46.9 °F 44.2 °F 29.41 in North 5.0 mph 9.0 mph 90 % 0.00 in 0 W/m2
04:38 46.9 °F 44.2 °F 29.41 in North 6.0 mph 9.0 mph 90 % 0.00 in 0 W/m2
04:43 46.9 °F 44.2 °F 29.41 in North 6.0 mph 10.0 mph 90 % 0.00 in 0 W/m2
04:48 47.1 °F 44.6 °F 29.41 in North 5.0 mph 10.0 mph 91 % 0.00 in 0 W/m2
04:54 47.1 °F 44.6 °F 29.41 in North 3.0 mph 8.0 mph 91 % 0.00 in 0 W/m2
04:59 47.1 °F 44.6 °F 29.41 in North 2.0 mph 7.0 mph 91 % 0.00 in 0 W/m2
05:04 47.1 °F 44.6 °F 29.40 in NNW 2.0 mph 7.0 mph 91 % 0.00 in 0 W/m2
05:09 47.1 °F 44.6 °F 29.40 in NNW 2.0 mph 7.0 mph 91 % 0.00 in 0 W/m2
05:14 47.1 °F 44.6 °F 29.40 in North 1.0 mph 7.0 mph 91 % 0.00 in 0 W/m2
05:15 47.3 °F 44.8 °F 29.40 in North 1.0 mph 7.0 mph 91 % 0.00 in 0 W/m2
05:20 47.3 °F 44.8 °F 29.40 in NNW 2.0 mph 7.0 mph 91 % 0.00 in 5 W/m2
05:25 47.3 °F 44.8 °F 29.40 in NNW 2.0 mph 7.0 mph 91 % 0.00 in 7 W/m2
05:30 47.5 °F 45.0 °F 29.40 in NNW 1.0 mph 5.0 mph 91 % 0.00 in 7 W/m2
05:35 47.5 °F 45.0 °F 29.41 in North 1.0 mph 5.0 mph 91 % 0.00 in 7 W/m2
05:37 47.5 °F 45.0 °F 29.41 in North 1.0 mph 5.0 mph 91 % 0.00 in 11 W/m2
05:42 47.5 °F 45.0 °F 29.40 in NNW 2.0 mph 8.0 mph 91 % 0.00 in 16 W/m2
05:47 47.5 °F 45.0 °F 29.40 in NNW 3.0 mph 10.0 mph 91 % 0.00 in 18 W/m2
05:52 47.5 °F 45.0 °F 29.40 in NNW 4.0 mph 10.0 mph 91 % 0.00 in 14 W/m2
05:57 47.3 °F 44.8 °F 29.40 in NNW 5.0 mph 9.0 mph 91 % 0.00 in 14 W/m2
06:02 47.1 °F 44.6 °F 29.40 in NNW 4.0 mph 9.0 mph 91 % 0.00 in 14 W/m2
06:07 47.1 °F 44.6 °F 29.40 in NNW 4.0 mph 9.0 mph 91 % 0.00 in 21 W/m2
06:12 47.1 °F 44.6 °F 29.41 in NNW 4.0 mph 8.0 mph 91 % 0.00 in 26 W/m2
06:17 46.9 °F 44.4 °F 29.41 in NNW 3.0 mph 8.0 mph 91 % 0.00 in 26 W/m2
06:22 46.9 °F 44.4 °F 29.41 in North 3.0 mph 8.0 mph 91 % 0.00 in 25 W/m2
06:27 47.1 °F 44.6 °F 29.41 in NNW 4.0 mph 8.0 mph 91 % 0.00 in 23 W/m2
06:32 46.9 °F 44.4 °F 29.41 in NNW 5.0 mph 8.0 mph 91 % 0.00 in 23 W/m2
06:37 47.1 °F 44.6 °F 29.41 in North 4.0 mph 7.0 mph 91 % 0.00 in 21 W/m2
06:42 46.9 °F 44.2 °F 29.41 in North 4.0 mph 10.0 mph 90 % 0.00 in 25 W/m2
06:47 46.9 °F 44.2 °F 29.41 in NNE 4.0 mph 10.0 mph 90 % 0.00 in 42 W/m2
06:52 46.9 °F 44.2 °F 29.41 in NNE 3.0 mph 9.0 mph 90 % 0.00 in 70 W/m2
06:57 46.9 °F 44.2 °F 29.41 in North 4.0 mph 8.0 mph 90 % 0.00 in 63 W/m2
07:02 47.1 °F 44.3 °F 29.41 in NNE 4.0 mph 8.0 mph 90 % 0.00 in 62 W/m2
07:08 47.1 °F 44.3 °F 29.41 in NNE 3.0 mph 8.0 mph 90 % 0.00 in 56 W/m2
07:13 47.1 °F 44.6 °F 29.41 in North 2.0 mph 7.0 mph 91 % 0.00 in 74 W/m2
07:18 47.3 °F 44.8 °F 29.42 in North 2.0 mph 7.0 mph 91 % 0.00 in 90 W/m2
07:23 47.3 °F 44.8 °F 29.42 in North 3.0 mph 7.0 mph 91 % 0.00 in 86 W/m2
07:28 47.5 °F 45.0 °F 29.42 in North 4.0 mph 7.0 mph 91 % 0.00 in 90 W/m2
07:33 47.7 °F 45.2 °F 29.42 in North 3.0 mph 7.0 mph 91 % 0.00 in 83 W/m2
07:38 47.7 °F 44.9 °F 29.41 in North 2.0 mph 7.0 mph 90 % 0.00 in 102 W/m2
07:43 47.8 °F 45.3 °F 29.41 in NNW 3.0 mph 7.0 mph 91 % 0.00 in 86 W/m2
07:48 48.0 °F 45.2 °F 29.41 in NNW 3.0 mph 8.0 mph 90 % 0.00 in 91 W/m2
07:53 48.2 °F 45.4 °F 29.41 in NNW 3.0 mph 8.0 mph 90 % 0.00 in 104 W/m2
07:58 48.2 °F 45.4 °F 29.41 in NNW 4.0 mph 7.0 mph 90 % 0.00 in 134 W/m2
08:03 48.4 °F 45.6 °F 29.41 in North 4.0 mph 9.0 mph 90 % 0.00 in 125 W/m2
08:08 48.6 °F 45.8 °F 29.41 in North 3.0 mph 9.0 mph 90 % 0.00 in 132 W/m2
08:13 48.6 °F 45.8 °F 29.41 in North 2.0 mph 8.0 mph 90 % 0.00 in 127 W/m2
08:18 48.7 °F 45.9 °F 29.41 in North 3.0 mph 8.0 mph 90 % 0.00 in 105 W/m2
08:23 48.7 °F 45.6 °F 29.41 in NNW 4.0 mph 8.0 mph 89 % 0.00 in 97 W/m2
08:28 48.7 °F 45.6 °F 29.41 in NNW 3.0 mph 7.0 mph 89 % 0.00 in 104 W/m2
08:33 48.9 °F 45.8 °F 29.41 in NNW 3.0 mph 8.0 mph 89 % 0.00 in 105 W/m2
08:38 49.1 °F 46.0 °F 29.41 in NNW 2.0 mph 8.0 mph 89 % 0.00 in 105 W/m2
08:43 49.3 °F 46.2 °F 29.41 in NNE 1.0 mph 6.0 mph 89 % 0.00 in 107 W/m2
08:48 49.3 °F 46.2 °F 29.41 in Calm   4.0 mph 89 % 0.00 in 127 W/m2
08:53 49.5 °F 46.4 °F 29.41 in NNE 2.0 mph 7.0 mph 89 % 0.00 in 116 W/m2
08:58 49.5 °F 46.4 °F 29.41 in NNE 3.0 mph 7.0 mph 89 % 0.00 in 114 W/m2
09:03 49.5 °F 46.4 °F 29.41 in NNE 2.0 mph 6.0 mph 89 % 0.00 in 102 W/m2
09:08 49.6 °F 46.5 °F 29.41 in NNW 2.0 mph 7.0 mph 89 % 0.00 in 88 W/m2
09:13 49.6 °F 46.5 °F 29.41 in North 3.0 mph 7.0 mph 89 % 0.00 in 76 W/m2
09:18 49.8 °F 46.7 °F 29.41 in North 2.0 mph 6.0 mph 89 % 0.00 in 86 W/m2
09:23 49.8 °F 46.7 °F 29.41 in North 2.0 mph 7.0 mph 89 % 0.00 in 90 W/m2
09:28 49.8 °F 47.0 °F 29.41 in North 2.0 mph 7.0 mph 90 % 0.00 in 90 W/m2
09:33 49.8 °F 47.0 °F 29.41 in NNE 2.0 mph 7.0 mph 90 % 0.00 in 116 W/m2
09:38 49.8 °F 47.0 °F 29.41 in NNE 3.0 mph 8.0 mph 90 % 0.00 in 127 W/m2
09:43 49.6 °F 46.8 °F 29.41 in NNE 4.0 mph 8.0 mph 90 % 0.00 in 132 W/m2
09:48 49.6 °F 46.8 °F 29.41 in NNE 3.0 mph 8.0 mph 90 % 0.00 in 141 W/m2
09:54 49.6 °F 46.8 °F 29.41 in NE 2.0 mph 8.0 mph 90 % 0.00 in 156 W/m2
09:59 49.8 °F 47.0 °F 29.41 in NE 4.0 mph 8.0 mph 90 % 0.00 in 135 W/m2
10:04 49.8 °F 47.0 °F 29.41 in NNE 4.0 mph 8.0 mph 90 % 0.00 in 134 W/m2
10:09 50.0 °F 47.2 °F 29.41 in NNE 3.0 mph 8.0 mph 90 % 0.00 in 144 W/m2
10:14 50.2 °F 47.4 °F 29.41 in North 2.0 mph 7.0 mph 90 % 0.00 in 142 W/m2
10:19 50.4 °F 47.5 °F 29.41 in NNE 2.0 mph 7.0 mph 90 % 0.00 in 118 W/m2
10:24 50.4 °F 47.2 °F 29.41 in NNE 2.0 mph 7.0 mph 89 % 0.00 in 121 W/m2
10:29 50.4 °F 47.2 °F 29.41 in NE 3.0 mph 7.0 mph 89 % 0.00 in 105 W/m2
10:34 50.4 °F 47.2 °F 29.42 in NE 2.0 mph 6.0 mph 89 % 0.00 in 109 W/m2
10:39 50.4 °F 47.5 °F 29.41 in NNE 2.0 mph 7.0 mph 90 % 0.00 in 167 W/m2
10:44 50.4 °F 47.5 °F 29.41 in NNE 3.0 mph 7.0 mph 90 % 0.00 in 241 W/m2
10:49 50.7 °F 48.2 °F 29.41 in NNE 1.0 mph 5.0 mph 91 % 0.00 in 178 W/m2
10:54 50.9 °F 48.1 °F 29.41 in North 1.0 mph 5.0 mph 90 % 0.00 in 153 W/m2
10:59 51.1 °F 48.2 °F 29.41 in North 2.0 mph 6.0 mph 90 % 0.00 in 144 W/m2
11:04 51.1 °F 48.2 °F 29.41 in North 1.0 mph 6.0 mph 90 % 0.00 in 109 W/m2
11:09 51.3 °F 48.4 °F 29.42 in Calm   4.0 mph 90 % 0.00 in 111 W/m2
11:14 51.4 °F 48.6 °F 29.42 in Calm   2.0 mph 90 % 0.00 in 102 W/m2
11:19 51.6 °F 48.8 °F 29.42 in Calm   2.0 mph 90 % 0.00 in 102 W/m2
11:24 51.4 °F 48.3 °F 29.42 in ENE 1.0 mph 6.0 mph 89 % 0.00 in 102 W/m2
11:29 51.4 °F 48.3 °F 29.42 in ENE 2.0 mph 6.0 mph 89 % 0.00 in 123 W/m2
11:34 51.6 °F 48.5 °F 29.42 in NE 1.0 mph 6.0 mph 89 % 0.00 in 144 W/m2
11:39 51.6 °F 48.5 °F 29.42 in NE 2.0 mph 5.0 mph 89 % 0.00 in 109 W/m2
11:44 51.8 °F 48.7 °F 29.42 in NE 1.0 mph 5.0 mph 89 % 0.00 in 107 W/m2
11:49 51.8 °F 48.7 °F 29.42 in NE 1.0 mph 5.0 mph 89 % 0.00 in 116 W/m2
11:54 52.0 °F 48.8 °F 29.42 in NE 1.0 mph 3.0 mph 89 % 0.00 in 107 W/m2
11:59 52.0 °F 48.8 °F 29.42 in NE 1.0 mph 4.0 mph 89 % 0.00 in 97 W/m2
12:04 52.0 °F 48.8 °F 29.42 in NE 2.0 mph 4.0 mph 89 % 0.00 in 102 W/m2
12:09 52.0 °F 48.8 °F 29.42 in NE 1.0 mph 4.0 mph 89 % 0.00 in 109 W/m2
12:14 52.0 °F 48.8 °F 29.42 in NE 1.0 mph 5.0 mph 89 % 0.00 in 128 W/m2
12:19 52.0 °F 49.1 °F 29.42 in NE 1.0 mph 5.0 mph 90 % 0.00 in 121 W/m2
12:25 52.0 °F 49.1 °F 29.42 in NE 1.0 mph 4.0 mph 90 % 0.00 in 132 W/m2
12:30 52.2 °F 49.3 °F 29.42 in NE 1.0 mph 4.0 mph 90 % 0.00 in 149 W/m2
12:35 52.2 °F 49.3 °F 29.42 in NE 1.0 mph 4.0 mph 90 % 0.00 in 149 W/m2
12:40 52.3 °F 49.5 °F 29.42 in Calm   4.0 mph 90 % 0.00 in 113 W/m2
12:45 52.3 °F 49.5 °F 29.42 in NE 1.0 mph 5.0 mph 90 % 0.00 in 130 W/m2
12:50 52.3 °F 49.5 °F 29.42 in NE 1.0 mph 5.0 mph 90 % 0.00 in 162 W/m2
12:55 52.5 °F 49.7 °F 29.42 in Calm   2.0 mph 90 % 0.00 in 169 W/m2
12:57 52.5 °F 50.0 °F 29.42 in Calm   2.0 mph 91 % 0.00 in 169 W/m2
13:02 52.7 °F 49.8 °F 29.42 in Calm   2.0 mph 90 % 0.00 in 209 W/m2
13:07 53.1 °F 50.5 °F 29.42 in Calm   2.0 mph 91 % 0.01 in 197 W/m2
13:12 53.2 °F 50.7 °F 29.42 in Calm   1.0 mph 91 % 0.01 in 223 W/m2
13:17 53.4 °F 50.6 °F 29.42 in Calm   2.0 mph 90 % 0.01 in 216 W/m2
13:22 53.8 °F 50.9 °F 29.42 in East 1.0 mph 6.0 mph 90 % 0.01 in 151 W/m2
13:27 53.8 °F 50.9 °F 29.42 in East 1.0 mph 6.0 mph 90 % 0.01 in 137 W/m2
13:32 53.8 °F 50.9 °F 29.42 in East 2.0 mph 5.0 mph 90 % 0.01 in 162 W/m2
13:37 53.8 °F 50.9 °F 29.42 in ESE 2.0 mph 5.0 mph 90 % 0.01 in 214 W/m2
13:42 53.8 °F 50.9 °F 29.42 in SE 2.0 mph 5.0 mph 90 % 0.01 in 216 W/m2
13:47 54.0 °F 51.4 °F 29.42 in SE 1.0 mph 4.0 mph 91 % 0.01 in 207 W/m2
13:52 54.0 °F 51.4 °F 29.42 in SE 2.0 mph 5.0 mph 91 % 0.01 in 211 W/m2
13:57 54.0 °F 51.1 °F 29.42 in SE 2.0 mph 5.0 mph 90 % 0.01 in 176 W/m2
14:01 54.0 °F 51.1 °F 29.42 in SE 1.0 mph 5.0 mph 90 % 0.01 in 160 W/m2
14:06 54.0 °F 51.1 °F 29.42 in SE 1.0 mph 3.0 mph 90 % 0.00 in 178 W/m2
14:11 54.1 °F 51.3 °F 29.42 in SE 1.0 mph 5.0 mph 90 % 0.00 in 160 W/m2
14:16 54.1 °F 51.0 °F 29.42 in SE 1.0 mph 5.0 mph 89 % 0.00 in 158 W/m2
14:21 54.1 °F 51.3 °F 29.42 in SE 1.0 mph 6.0 mph 90 % 0.00 in 128 W/m2
14:26 54.3 °F 51.4 °F 29.42 in SE 2.0 mph 6.0 mph 90 % 0.00 in 100 W/m2
14:31 54.3 °F 51.4 °F 29.42 in SE 2.0 mph 6.0 mph 90 % 0.00 in 102 W/m2
14:36 54.3 °F 51.4 °F 29.42 in SE 3.0 mph 6.0 mph 90 % 0.00 in 113 W/m2
14:42 54.1 °F 51.0 °F 29.42 in SE 3.0 mph 6.0 mph 89 % 0.00 in 127 W/m2
14:47 54.1 °F 51.3 °F 29.42 in SE 3.0 mph 6.0 mph 90 % 0.00 in 139 W/m2
14:52 54.1 °F 51.3 °F 29.42 in SE 2.0 mph 6.0 mph 90 % 0.00 in 135 W/m2
14:57 54.3 °F 51.4 °F 29.43 in SE 2.0 mph 7.0 mph 90 % 0.00 in 125 W/m2
15:02 54.3 °F 51.1 °F 29.42 in SSE 3.0 mph 9.0 mph 89 % 0.00 in 151 W/m2
15:07 54.1 °F 51.3 °F 29.42 in SSE 4.0 mph 9.0 mph 90 % 0.00 in 151 W/m2
15:12 54.1 °F 51.3 °F 29.43 in SSE 3.0 mph 7.0 mph 90 % 0.00 in 142 W/m2
15:17 54.1 °F 51.0 °F 29.42 in SSE 3.0 mph 6.0 mph 89 % 0.00 in 179 W/m2
15:22 54.3 °F 51.4 °F 29.42 in South 3.0 mph 6.0 mph 90 % 0.00 in 181 W/m2
15:27 54.7 °F 51.8 °F 29.42 in South 2.0 mph 6.0 mph 90 % 0.00 in 141 W/m2
15:32 54.7 °F 51.5 °F 29.42 in South 1.0 mph 5.0 mph 89 % 0.00 in 174 W/m2
15:37 54.9 °F 51.7 °F 29.43 in SSE 3.0 mph 7.0 mph 89 % 0.00 in 197 W/m2
15:42 55.0 °F 52.2 °F 29.42 in SSE 4.0 mph 7.0 mph 90 % 0.00 in 251 W/m2
15:47 55.2 °F 51.7 °F 29.42 in SSE 3.0 mph 6.0 mph 88 % 0.00 in 246 W/m2
15:52 55.4 °F 52.2 °F 29.42 in South 2.0 mph 6.0 mph 89 % 0.00 in 239 W/m2
15:57 55.8 °F 52.6 °F 29.42 in South 2.0 mph 7.0 mph 89 % 0.00 in 295 W/m2
16:02 55.9 °F 52.4 °F 29.42 in SSE 2.0 mph 7.0 mph 88 % 0.00 in 355 W/m2
16:07 56.5 °F 52.7 °F 29.41 in SSE 2.0 mph 7.0 mph 87 % 0.00 in 540 W/m2
16:12 57.0 °F 53.2 °F 29.41 in SSE 1.0 mph 5.0 mph 87 % 0.00 in 779 W/m2
16:17 57.6 °F 53.1 °F 29.41 in SSE 1.0 mph 5.0 mph 85 % 0.00 in 318 W/m2
16:22 57.7 °F 52.6 °F 29.41 in South 1.0 mph 6.0 mph 83 % 0.00 in 462 W/m2
16:27 57.9 °F 52.5 °F 29.41 in SSW 2.0 mph 6.0 mph 82 % 0.00 in 244 W/m2
16:33 57.9 °F 52.5 °F 29.41 in SSW 1.0 mph 6.0 mph 82 % 0.00 in 276 W/m2
16:38 58.1 °F 52.6 °F 29.41 in SSW 1.0 mph 5.0 mph 82 % 0.00 in 279 W/m2
16:43 58.6 °F 53.2 °F 29.41 in SW 1.0 mph 5.0 mph 82 % 0.00 in 615 W/m2
16:48 59.2 °F 53.0 °F 29.41 in Calm   2.0 mph 80 % 0.00 in 325 W/m2
16:53 59.4 °F 53.2 °F 29.40 in Calm   2.0 mph 80 % 0.00 in 598 W/m2
16:58 59.5 °F 53.0 °F 29.40 in Calm   2.0 mph 79 % 0.00 in 385 W/m2
17:03 59.7 °F 53.2 °F 29.40 in Calm   4.0 mph 79 % 0.00 in 260 W/m2
17:08 59.7 °F 53.2 °F 29.41 in SSW 1.0 mph 4.0 mph 79 % 0.00 in 278 W/m2
17:13 60.1 °F 53.2 °F 29.40 in SSE 1.0 mph 5.0 mph 78 % 0.00 in 329 W/m2
17:18 60.1 °F 53.2 °F 29.40 in SSE 2.0 mph 5.0 mph 78 % 0.00 in 262 W/m2
17:23 60.3 °F 53.4 °F 29.40 in SE 2.0 mph 6.0 mph 78 % 0.00 in 221 W/m2
17:28 60.3 °F 53.0 °F 29.41 in SE 3.0 mph 7.0 mph 77 % 0.00 in 225 W/m2
17:33 60.4 °F 53.5 °F 29.41 in SE 2.0 mph 7.0 mph 78 % 0.00 in 197 W/m2
17:38 60.4 °F 53.5 °F 29.41 in SE 1.0 mph 5.0 mph 78 % 0.00 in 195 W/m2
17:43 60.6 °F 53.7 °F 29.41 in SE 3.0 mph 6.0 mph 78 % 0.00 in 197 W/m2
17:48 60.6 °F 53.7 °F 29.40 in SE 2.0 mph 6.0 mph 78 % 0.00 in 227 W/m2
17:53 60.8 °F 53.5 °F 29.40 in SE 1.0 mph 5.0 mph 77 % 0.00 in 248 W/m2
17:58 61.0 °F 53.7 °F 29.40 in SE 3.0 mph 7.0 mph 77 % 0.00 in 207 W/m2
18:00 61.0 °F 53.7 °F 29.40 in SE 3.0 mph 7.0 mph 77 % 0.00 in 195 W/m2
18:05 61.0 °F 53.7 °F 29.40 in SE 4.0 mph 8.0 mph 77 % 0.00 in 169 W/m2
18:10 60.8 °F 53.2 °F 29.40 in SE 4.0 mph 8.0 mph 76 % 0.00 in 142 W/m2
18:15 60.8 °F 53.5 °F 29.40 in SE 4.0 mph 7.0 mph 77 % 0.00 in 127 W/m2
18:20 60.6 °F 53.4 °F 29.40 in SE 4.0 mph 8.0 mph 77 % 0.00 in 139 W/m2
18:26 60.6 °F 53.4 °F 29.40 in ESE 4.0 mph 8.0 mph 77 % 0.00 in 155 W/m2
18:31 60.4 °F 53.2 °F 29.40 in ESE 4.0 mph 7.0 mph 77 % 0.00 in 114 W/m2
18:36 60.3 °F 53.0 °F 29.41 in ESE 5.0 mph 7.0 mph 77 % 0.00 in 104 W/m2
18:41 60.3 °F 53.4 °F 29.41 in ESE 4.0 mph 7.0 mph 78 % 0.00 in 98 W/m2
18:46 60.3 °F 53.4 °F 29.41 in ESE 3.0 mph 6.0 mph 78 % 0.00 in 84 W/m2
18:51 60.3 °F 53.4 °F 29.41 in ESE 3.0 mph 6.0 mph 78 % 0.00 in 65 W/m2
18:56 60.3 °F 53.4 °F 29.41 in ESE 2.0 mph 6.0 mph 78 % 0.00 in 54 W/m2
19:01 60.3 °F 53.4 °F 29.41 in ESE 2.0 mph 6.0 mph 78 % 0.00 in 54 W/m2
19:06 60.1 °F 53.2 °F 29.41 in East 2.0 mph 5.0 mph 78 % 0.00 in 60 W/m2
19:11 60.1 °F 53.2 °F 29.41 in East 2.0 mph 5.0 mph 78 % 0.00 in 69 W/m2
19:16 60.1 °F 53.2 °F 29.42 in East 2.0 mph 5.0 mph 78 % 0.00 in 76 W/m2
19:21 60.1 °F 53.2 °F 29.42 in ESE 2.0 mph 5.0 mph 78 % 0.00 in 69 W/m2
19:26 60.1 °F 53.2 °F 29.42 in ESE 2.0 mph 5.0 mph 78 % 0.00 in 62 W/m2
19:31 60.1 °F 53.2 °F 29.42 in ESE 2.0 mph 5.0 mph 78 % 0.00 in 53 W/m2
19:36 60.1 °F 53.2 °F 29.42 in ESE 2.0 mph 5.0 mph 78 % 0.00 in 49 W/m2
19:41 60.1 °F 53.5 °F 29.42 in ESE 2.0 mph 5.0 mph 79 % 0.00 in 51 W/m2
19:46 60.1 °F 53.5 °F 29.42 in ESE 2.0 mph 5.0 mph 79 % 0.00 in 49 W/m2
19:51 60.1 °F 53.5 °F 29.42 in ESE 2.0 mph 5.0 mph 79 % 0.00 in 44 W/m2
19:53 59.9 °F 53.4 °F 29.42 in ESE 2.0 mph 5.0 mph 79 % 0.00 in 37 W/m2
19:58 59.9 °F 53.4 °F 29.43 in ESE 2.0 mph 5.0 mph 79 % 0.00 in 32 W/m2
20:04 59.9 °F 53.7 °F 29.43 in ESE 1.0 mph 5.0 mph 80 % 0.00 in 30 W/m2
20:09 59.7 °F 53.5 °F 29.43 in ESE 1.0 mph 5.0 mph 80 % 0.00 in 23 W/m2
20:14 59.5 °F 53.4 °F 29.43 in ESE 1.0 mph 5.0 mph 80 % 0.00 in 19 W/m2
20:19 59.4 °F 53.5 °F 29.43 in East 2.0 mph 7.0 mph 81 % 0.00 in 18 W/m2
20:24 59.2 °F 53.4 °F 29.43 in ENE 4.0 mph 8.0 mph 81 % 0.00 in 9 W/m2
20:29 58.8 °F 53.3 °F 29.43 in ENE 4.0 mph 8.0 mph 82 % 0.00 in 0 W/m2
20:34 58.6 °F 53.2 °F 29.43 in East 3.0 mph 7.0 mph 82 % 0.00 in 0 W/m2
20:39 58.6 °F 53.5 °F 29.44 in East 3.0 mph 7.0 mph 83 % 0.00 in 0 W/m2
20:44 58.5 °F 53.3 °F 29.44 in East 2.0 mph 7.0 mph 83 % 0.00 in 0 W/m2
20:49 58.5 °F 53.3 °F 29.44 in ESE 3.0 mph 7.0 mph 83 % 0.00 in 0 W/m2
20:54 58.5 °F 53.6 °F 29.44 in ESE 2.0 mph 7.0 mph 84 % 0.00 in 0 W/m2
20:59 58.3 °F 53.5 °F 29.44 in ESE 1.0 mph 4.0 mph 84 % 0.00 in 0 W/m2
21:04 58.1 °F 53.3 °F 29.44 in ESE 1.0 mph 4.0 mph 84 % 0.00 in 0 W/m2
21:09 57.9 °F 53.4 °F 29.44 in ESE 1.0 mph 6.0 mph 85 % 0.00 in 0 W/m2
21:15 57.9 °F 53.4 °F 29.44 in East 1.0 mph 1.0 mph 85 % 0.00 in 0 W/m2
21:20 57.8 °F 53.6 °F 29.44 in East 1.0 mph 1.0 mph 86 % 0.00 in 0 W/m2
21:25 57.7 °F 53.6 °F 29.45 in East 1.0 mph 1.0 mph 86 % 0.00 in 0 W/m2
21:30 57.6 °F 53.7 °F 29.45 in East 2.0 mph 5.0 mph 87 % 0.00 in 0 W/m2
21:35 57.6 °F 53.7 °F 29.45 in East 2.0 mph 5.0 mph 87 % 0.00 in 0 W/m2
21:40 57.6 °F 53.7 °F 29.45 in East 2.0 mph 5.0 mph 87 % 0.00 in 0 W/m2
21:45 57.6 °F 54.0 °F 29.45 in East 3.0 mph 6.0 mph 88 % 0.00 in 0 W/m2
21:50 57.6 °F 54.0 °F 29.45 in ESE 2.0 mph 6.0 mph 88 % 0.00 in 0 W/m2
21:55 57.4 °F 53.9 °F 29.45 in ESE 2.0 mph 5.0 mph 88 % 0.00 in 0 W/m2
22:00 57.4 °F 54.2 °F 29.45 in ESE 3.0 mph 6.0 mph 89 % 0.00 in 0 W/m2
22:05 57.4 °F 54.2 °F 29.45 in ESE 3.0 mph 6.0 mph 89 % 0.00 in 0 W/m2
22:10 57.4 °F 54.2 °F 29.45 in ESE 2.0 mph 5.0 mph 89 % 0.00 in 0 W/m2
22:15 57.4 °F 54.5 °F 29.45 in ESE 2.0 mph 6.0 mph 90 % 0.00 in 0 W/m2
22:20 57.4 °F 54.5 °F 29.45 in ESE 3.0 mph 6.0 mph 90 % 0.00 in 0 W/m2
22:25 57.4 °F 54.5 °F 29.45 in ESE 3.0 mph 9.0 mph 90 % 0.00 in 0 W/m2
22:30 57.4 °F 54.5 °F 29.45 in ESE 3.0 mph 9.0 mph 90 % 0.00 in 0 W/m2
22:35 57.4 °F 54.8 °F 29.45 in SE 3.0 mph 6.0 mph 91 % 0.00 in 0 W/m2
22:41 57.4 °F 54.8 °F 29.45 in SSE 3.0 mph 8.0 mph 91 % 0.00 in 0 W/m2
22:46 57.4 °F 54.8 °F 29.45 in SE 4.0 mph 8.0 mph 91 % 0.00 in 0 W/m2
22:47 57.4 °F 54.8 °F 29.45 in SE 4.0 mph 7.0 mph 91 % 0.00 in 0 W/m2
22:52 57.4 °F 54.8 °F 29.45 in SE 4.0 mph 7.0 mph 91 % 0.00 in 0 W/m2
22:57 57.4 °F 54.8 °F 29.45 in SSE 4.0 mph 7.0 mph 91 % 0.00 in 0 W/m2
23:02 57.2 °F 54.6 °F 29.45 in SSE 4.0 mph 7.0 mph 91 % 0.00 in 0 W/m2
23:07 57.2 °F 54.6 °F 29.45 in SSE 4.0 mph 7.0 mph 91 % 0.00 in 0 W/m2
23:12 57.0 °F 54.4 °F 29.45 in SE 4.0 mph 8.0 mph 91 % 0.00 in 0 W/m2
23:17 57.0 °F 54.4 °F 29.45 in SSE 5.0 mph 8.0 mph 91 % 0.00 in 0 W/m2
23:22 57.0 °F 54.4 °F 29.45 in SSE 5.0 mph 9.0 mph 91 % 0.00 in 0 W/m2
23:27 57.0 °F 54.1 °F 29.45 in South 6.0 mph 11.0 mph 90 % 0.00 in 0 W/m2
23:29 56.8 °F 53.9 °F 29.45 in South 6.0 mph 11.0 mph 90 % 0.00 in 0 W/m2
23:34 56.8 °F 53.6 °F 29.45 in South 7.0 mph 14.0 mph 89 % 0.00 in 0 W/m2
23:39 56.7 °F 52.8 °F 29.45 in SSW 8.0 mph 14.0 mph 87 % 0.00 in 0 W/m2
23:44 56.7 °F 52.2 °F 29.46 in SSW 10.0 mph 18.0 mph 85 % 0.00 in 0 W/m2
23:49 56.7 °F 51.9 °F 29.46 in SSW 9.0 mph 18.0 mph 84 % 0.00 in 0 W/m2
23:54 56.7 °F 51.9 °F 29.46 in SSW 7.0 mph 13.0 mph 84 % 0.00 in 0 W/m2
23:59 56.5 °F 51.7 °F 29.46 in SSW 6.0 mph 12.0 mph 84 % 0.00 in 0 W/m2
Delerius-Weather
Compliments of Weather Underground - 2.25 mb

Data updates at regular intervals.